Time;durP1;ratioP1;P1;durP2;ratioP2;P2;SDS_P1;SDS_P2;PMS_P1;PMS_P2;Temp;Humidity;BMP_temperature;BMP_pressure;BME280_temperature;BME280_humidity;BME280_pressure;Samples;Min_cycle;Max_cycle;Signal;HPM_P1;HPM_P2
2023/02/02 00:00:59;;;;;;;14.35;3.92;;;7.40;99.90;;;;;;5083893;28;20285;-73
2023/02/02 00:03:25;;;;;;;13.85;4.00;;;7.40;99.90;;;;;;5078360;28;20244;-75
2023/02/02 00:05:54;;;;;;;14.57;4.20;;;7.40;99.90;;;;;;5082111;28;20221;-77
2023/02/02 00:08:21;;;;;;;25.90;4.80;;;7.40;99.90;;;;;;5083385;28;20475;-78
2023/02/02 00:10:49;;;;;;;14.98;3.70;;;7.40;99.90;;;;;;5092607;28;20291;-77
2023/02/02 00:13:17;;;;;;;19.73;4.97;;;7.40;99.90;;;;;;5078819;28;20633;-74
2023/02/02 00:15:45;;;;;;;15.90;3.42;;;7.40;99.90;;;;;;5089646;28;20248;-75
2023/02/02 00:18:12;;;;;;;31.95;5.13;;;7.40;99.90;;;;;;5088420;28;20281;-75
2023/02/02 00:20:39;;;;;;;23.98;4.20;;;7.40;99.90;;;;;;5095593;28;20198;-75
2023/02/02 00:23:06;;;;;;;25.35;10.02;;;7.40;99.90;;;;;;5088559;28;20289;-75
2023/02/02 00:25:33;;;;;;;22.58;5.65;;;7.40;99.90;;;;;;5088187;28;20312;-75
2023/02/02 00:28:00;;;;;;;23.20;6.50;;;7.30;99.90;;;;;;5091207;28;20291;-75
2023/02/02 00:30:28;;;;;;;17.80;4.30;;;7.30;99.90;;;;;;5094084;28;20198;-76
2023/02/02 00:32:55;;;;;;;25.13;5.53;;;7.20;99.90;;;;;;5090846;28;20234;-76
2023/02/02 00:35:22;;;;;;;20.20;4.85;;;7.20;99.90;;;;;;5086459;28;20287;-74
2023/02/02 00:37:49;;;;;;;25.13;5.70;;;7.20;99.90;;;;;;5094565;28;20293;-75
2023/02/02 00:40:16;;;;;;;26.88;4.70;;;7.20;99.90;;;;;;5093346;28;20204;-74
2023/02/02 00:42:47;;;;;;;26.35;3.92;;;7.20;99.90;;;;;;5085737;28;20292;-75
2023/02/02 00:45:17;;;;;;;19.27;4.40;;;7.20;99.90;;;;;;5089716;28;20218;-76
2023/02/02 00:47:48;;;;;;;22.50;5.28;;;7.20;99.90;;;;;;5090737;28;20198;-76
2023/02/02 00:50:18;;;;;;;22.85;3.70;;;7.20;99.90;;;;;;5082420;28;20304;-75
2023/02/02 00:52:46;;;;;;;17.90;5.15;;;7.20;99.90;;;;;;5090039;28;20640;-75
2023/02/02 00:55:14;;;;;;;14.35;3.40;;;7.10;99.90;;;;;;5079019;28;20303;-74
2023/02/02 00:57:43;;;;;;;16.48;5.05;;;7.00;99.90;;;;;;5087916;28;20223;-77
2023/02/02 01:00:14;;;;;;;20.13;6.85;;;6.90;99.90;;;;;;5092600;28;20656;-77
2023/02/02 01:02:41;;;;;;;26.33;6.00;;;6.90;99.90;;;;;;5079457;28;20763;-77
2023/02/02 01:05:10;;;;;;;18.40;5.70;;;6.80;99.90;;;;;;5083252;28;20282;-77
2023/02/02 01:07:37;;;;;;;23.83;5.47;;;6.80;99.90;;;;;;5088103;28;20673;-74
2023/02/02 01:10:07;;;;;;;18.15;4.20;;;6.80;99.90;;;;;;5093953;28;20229;-75
2023/02/02 01:12:34;;;;;;;16.15;4.82;;;6.80;99.90;;;;;;5085708;28;20206;-75
2023/02/02 01:15:02;;;;;;;19.85;4.50;;;6.80;99.90;;;;;;5085439;28;20221;-76
2023/02/02 01:17:30;;;;;;;15.80;3.40;;;6.70;99.90;;;;;;5086425;28;20236;-77
2023/02/02 01:19:57;;;;;;;18.40;3.15;;;6.70;99.90;;;;;;5090175;28;20292;-75
2023/02/02 01:22:25;;;;;;;16.70;4.93;;;6.60;99.90;;;;;;5082455;28;20248;-77
2023/02/02 01:24:52;;;;;;;15.73;3.58;;;6.60;99.90;;;;;;5082249;28;20289;-75
2023/02/02 01:27:19;;;;;;;12.63;4.93;;;6.50;99.90;;;;;;5080095;28;20209;-75
2023/02/02 01:29:47;;;;;;;13.25;3.60;;;6.50;99.90;;;;;;5080323;28;20312;-76
2023/02/02 01:32:14;;;;;;;16.90;4.18;;;6.50;99.90;;;;;;5090763;28;20283;-76
2023/02/02 01:34:42;;;;;;;25.45;3.13;;;6.40;99.90;;;;;;5092666;28;20299;-74
2023/02/02 01:37:10;;;;;;;10.38;4.10;;;6.40;99.90;;;;;;5088323;28;20207;-74
2023/02/02 01:39:40;;;;;;;8.00;3.50;;;6.40;99.90;;;;;;5090091;28;20254;-73
2023/02/02 01:42:13;;;;;;;20.25;3.70;;;6.50;99.90;;;;;;5092516;28;20208;-74
2023/02/02 01:45:19;;;;;;;13.00;3.42;;;6.50;99.90;;;;;;5087222;28;20199;-76
2023/02/02 01:47:49;;;;;;;15.95;3.65;;;6.50;99.90;;;;;;5087291;28;20294;-75
2023/02/02 01:50:22;;;;;;;17.08;3.88;;;6.50;99.90;;;;;;5086350;28;20306;-75
2023/02/02 01:52:51;;;;;;;10.30;3.35;;;6.60;99.90;;;;;;5078631;28;20202;-74
2023/02/02 01:55:23;;;;;;;20.38;4.05;;;6.60;99.90;;;;;;5085112;28;20260;-74
2023/02/02 01:57:56;;;;;;;22.55;5.18;;;6.60;99.90;;;;;;5081951;28;20296;-75
2023/02/02 02:00:26;;;;;;;18.42;3.83;;;6.70;99.90;;;;;;5088310;28;20204;-74
2023/02/02 02:02:58;;;;;;;20.92;5.88;;;6.70;99.90;;;;;;5091198;28;20251;-75
2023/02/02 02:05:30;;;;;;;23.67;6.38;;;6.70;99.90;;;;;;5085001;28;20308;-77
2023/02/02 02:08:06;;;;;;;16.15;3.55;;;6.70;99.90;;;;;;5081578;28;20198;-74
2023/02/02 02:10:34;;;;;;;16.08;3.42;;;6.70;99.90;;;;;;5084298;28;20252;-76
2023/02/02 02:13:01;;;;;;;21.73;3.50;;;6.70;99.90;;;;;;5076412;28;20209;-77
2023/02/02 02:18:28;;;;;;;17.50;7.00;;;6.60;99.90;;;;;;5089614;28;20206;-75
2023/02/02 02:28:09;;;;;;;29.65;4.88;;;6.50;99.90;;;;;;5077497;28;20633;-75
2023/02/02 02:30:50;;;;;;;17.58;3.97;;;6.40;99.90;;;;;;5079672;28;20246;-74
2023/02/02 02:33:24;;;;;;;22.45;4.43;;;6.40;99.90;;;;;;5082096;28;20201;-74
2023/02/02 02:36:03;;;;;;;14.52;3.88;;;6.40;99.90;;;;;;5082287;28;20311;-74
2023/02/02 02:38:37;;;;;;;20.33;3.80;;;6.30;99.90;;;;;;5078158;28;20290;-76
2023/02/02 02:41:10;;;;;;;21.50;4.30;;;6.40;99.90;;;;;;5073817;28;20588;-75
2023/02/02 02:43:41;;;;;;;23.17;3.90;;;6.30;99.90;;;;;;5081604;28;20291;-77
2023/02/02 02:46:10;;;;;;;27.15;4.43;;;6.40;99.90;;;;;;5087566;28;20224;-74
2023/02/02 02:48:38;;;;;;;17.55;4.35;;;6.40;99.90;;;;;;5085296;28;20205;-76
2023/02/02 02:51:07;;;;;;;19.63;3.83;;;6.50;99.90;;;;;;5088410;28;20209;-75
2023/02/02 02:53:37;;;;;;;21.92;3.85;;;6.50;99.90;;;;;;5092127;28;20642;-76
2023/02/02 02:56:12;;;;;;;26.73;5.55;;;6.50;99.90;;;;;;5092322;28;21129;-75
2023/02/02 02:58:49;;;;;;;9.63;4.03;;;6.60;99.90;;;;;;5081043;28;20298;-75
2023/02/02 03:01:21;;;;;;;18.60;5.05;;;6.50;99.90;;;;;;5077121;28;20637;-73
2023/02/02 03:04:06;;;;;;;21.95;5.05;;;6.50;99.90;;;;;;5085950;28;20200;-74
2023/02/02 03:06:41;;;;;;;33.72;7.90;;;6.60;99.90;;;;;;5091984;28;20316;-74
2023/02/02 03:09:12;;;;;;;17.33;3.50;;;6.70;99.90;;;;;;5072680;28;20312;-75
2023/02/02 03:11:39;;;;;;;26.05;3.90;;;6.70;99.90;;;;;;5080395;28;20301;-74
2023/02/02 03:14:08;;;;;;;18.02;4.90;;;6.70;99.90;;;;;;5081737;28;20197;-75
2023/02/02 03:16:36;;;;;;;26.55;4.82;;;6.60;99.90;;;;;;5081359;28;20221;-78
2023/02/02 03:19:06;;;;;;;18.33;4.10;;;6.60;99.90;;;;;;5084419;28;20667;-76
2023/02/02 03:21:34;;;;;;;14.57;4.63;;;6.60;99.90;;;;;;5080262;28;20203;-73
2023/02/02 03:24:01;;;;;;;14.80;4.18;;;6.60;99.90;;;;;;5083833;28;20209;-78
2023/02/02 03:26:28;;;;;;;21.38;3.92;;;6.60;99.90;;;;;;5086598;28;20226;-75
2023/02/02 03:28:56;;;;;;;16.70;3.83;;;6.50;99.90;;;;;;5080843;28;20745;-76
2023/02/02 03:31:25;;;;;;;24.13;4.15;;;6.60;99.90;;;;;;5084321;28;20220;-77
2023/02/02 03:33:52;;;;;;;21.83;4.13;;;6.60;99.90;;;;;;5093285;28;20201;-75
2023/02/02 03:36:21;;;;;;;11.10;4.28;;;6.60;99.90;;;;;;5083344;28;20233;-74
2023/02/02 03:38:48;;;;;;;25.70;4.05;;;6.50;99.90;;;;;;5090735;28;20280;-75
2023/02/02 03:41:15;;;;;;;11.77;2.83;;;6.40;99.90;;;;;;5083708;28;20281;-75
2023/02/02 03:43:42;;;;;;;20.00;4.10;;;6.40;99.90;;;;;;5088683;28;20205;-75
2023/02/02 03:46:09;;;;;;;21.42;4.07;;;6.30;99.90;;;;;;5082497;28;20634;-75
2023/02/02 03:48:37;;;;;;;18.10;4.47;;;6.20;99.90;;;;;;5088630;28;20201;-75
2023/02/02 03:51:08;;;;;;;15.32;4.53;;;6.20;99.90;;;;;;5089652;28;20269;-75
2023/02/02 03:53:36;;;;;;;14.68;3.40;;;6.10;99.90;;;;;;5080750;28;20193;-76
2023/02/02 04:27:07;;;;;;;21.05;5.00;;;5.60;99.90;;;;;;4746994;30;20240;-85
2023/02/02 04:40:06;;;;;;;26.00;4.30;;;5.60;99.90;;;;;;4791999;29;20699;-86
2023/02/02 04:56:44;;;;;;;22.60;5.78;;;5.50;99.90;;;;;;4915237;29;20284;-84
2023/02/02 06:27:37;;;;;;;18.88;4.20;;;5.40;99.90;;;;;;4864902;29;20244;-84
2023/02/02 06:30:05;;;;;;;42.13;5.28;;;5.50;99.90;;;;;;4923086;28;20287;-85
2023/02/02 06:32:32;;;;;;;27.65;5.38;;;5.60;99.90;;;;;;5042797;28;20583;-83
2023/02/02 06:34:58;;;;;;;25.95;6.22;;;5.60;99.90;;;;;;5037759;28;20226;-84
2023/02/02 06:37:25;;;;;;;20.58;8.45;;;5.60;99.90;;;;;;5036717;28;20302;-84
2023/02/02 06:39:52;;;;;;;16.70;5.78;;;5.60;99.90;;;;;;5042128;28;20237;-85
2023/02/02 06:42:19;;;;;;;23.33;4.45;;;5.60;99.90;;;;;;5050166;28;20238;-86
2023/02/02 06:44:47;;;;;;;22.10;5.95;;;5.60;99.90;;;;;;5041729;28;20196;-85
2023/02/02 06:47:14;;;;;;;26.65;6.70;;;5.60;99.90;;;;;;5037375;28;20259;-84
2023/02/02 06:49:43;;;;;;;23.08;4.88;;;5.60;99.90;;;;;;5038246;28;20259;-88
2023/02/02 06:52:10;;;;;;;18.27;4.05;;;5.60;99.90;;;;;;5036392;28;20210;-86
2023/02/02 06:54:37;;;;;;;20.95;7.82;;;5.70;99.90;;;;;;5048045;28;20209;-83
2023/02/02 06:57:04;;;;;;;29.50;7.10;;;5.70;99.90;;;;;;5041645;28;20598;-83
2023/02/02 06:59:31;;;;;;;18.27;5.07;;;5.70;99.90;;;;;;5048640;28;20232;-84
2023/02/02 07:02:00;;;;;;;16.20;5.78;;;5.70;99.90;;;;;;5040108;28;20228;-85
2023/02/02 07:04:27;;;;;;;20.85;6.22;;;5.70;99.90;;;;;;5047066;28;20284;-83
2023/02/02 07:06:54;;;;;;;24.65;6.47;;;5.80;99.90;;;;;;5046525;28;20247;-83
2023/02/02 07:09:21;;;;;;;25.05;5.45;;;5.80;99.90;;;;;;5041520;28;20214;-84
2023/02/02 07:11:48;;;;;;;23.00;5.00;;;5.80;99.90;;;;;;5046226;28;20233;-83
2023/02/02 07:14:15;;;;;;;35.67;6.03;;;5.80;99.90;;;;;;5053573;28;20287;-83
2023/02/02 07:16:42;;;;;;;29.08;5.65;;;5.80;99.90;;;;;;5045850;28;20283;-85
2023/02/02 07:19:12;;;;;;;33.92;7.68;;;5.80;99.90;;;;;;5044831;28;20815;-83
2023/02/02 07:45:18;;;;;;;16.13;4.45;;;6.00;99.90;;;;;;4995505;28;20214;-84
2023/02/02 07:48:01;;;;;;;19.92;6.75;;;6.10;99.90;;;;;;5046776;28;20629;-85
2023/02/02 07:50:37;;;;;;;22.63;5.93;;;6.10;99.90;;;;;;5040974;28;20338;-85
2023/02/02 07:53:07;;;;;;;36.13;6.70;;;6.10;99.90;;;;;;5034884;28;20237;-85
2023/02/02 07:55:33;;;;;;;25.08;6.57;;;6.20;99.90;;;;;;5051106;28;20222;-84
2023/02/02 07:58:01;;;;;;;25.55;4.15;;;6.20;99.90;;;;;;5058550;28;20242;-87
2023/02/02 08:00:32;;;;;;;20.98;5.53;;;6.40;99.90;;;;;;5054780;28;20206;-87
2023/02/02 08:02:59;;;;;;;25.75;8.13;;;6.20;99.90;;;;;;5051332;28;20625;-86
2023/02/02 08:05:25;;;;;;;28.52;5.68;;;6.40;99.90;;;;;;5045295;28;20237;-85
2023/02/02 08:07:52;;;;;;;28.55;8.02;;;6.50;99.90;;;;;;5049241;28;20220;-86
2023/02/02 08:10:19;;;;;;;22.55;5.72;;;6.50;99.90;;;;;;5045700;28;20210;-87
2023/02/02 08:12:46;;;;;;;21.33;5.40;;;6.60;99.90;;;;;;5051299;28;20235;-87
2023/02/02 08:15:13;;;;;;;29.67;8.52;;;6.70;99.90;;;;;;5064888;28;20221;-87
2023/02/02 08:17:45;;;;;;;18.30;6.20;;;6.80;99.90;;;;;;5053389;28;20360;-86
2023/02/02 08:20:13;;;;;;;15.50;4.07;;;7.10;99.90;;;;;;5050864;28;20272;-86
2023/02/02 08:22:40;;;;;;;43.33;8.05;;;7.50;99.90;;;;;;5046316;28;20205;-86
2023/02/02 08:25:08;;;;;;;24.70;5.75;;;7.90;99.90;;;;;;5045876;28;20233;-86
2023/02/02 08:27:35;;;;;;;26.15;5.78;;;8.10;99.90;;;;;;5053078;28;20236;-85
2023/02/02 08:30:02;;;;;;;18.17;7.00;;;8.20;99.90;;;;;;5053125;28;20268;-86
2023/02/02 08:32:31;;;;;;;26.50;6.35;;;8.20;99.90;;;;;;5050312;28;20210;-86
2023/02/02 08:34:59;;;;;;;18.60;4.97;;;8.30;99.90;;;;;;5060826;28;20295;-85
2023/02/02 08:37:26;;;;;;;23.05;4.90;;;8.50;99.90;;;;;;5062187;28;20216;-85
2023/02/02 08:39:53;;;;;;;24.85;5.03;;;8.70;99.90;;;;;;5044185;28;20201;-85
2023/02/02 08:42:20;;;;;;;20.65;4.72;;;8.90;99.90;;;;;;5046176;28;20243;-86
2023/02/02 08:44:47;;;;;;;16.48;4.78;;;9.10;99.90;;;;;;5064195;28;20219;-87
2023/02/02 08:47:14;;;;;;;30.88;7.00;;;9.30;99.90;;;;;;5057346;28;20236;-86
2023/02/02 08:49:43;;;;;;;24.63;5.45;;;9.30;99.90;;;;;;5055041;28;20224;-87
2023/02/02 08:52:12;;;;;;;12.63;4.60;;;9.40;99.90;;;;;;5064230;28;20200;-87
2023/02/02 08:54:39;;;;;;;17.88;5.50;;;9.60;99.90;;;;;;5052725;28;20185;-85
2023/02/02 08:57:06;;;;;;;31.95;4.95;;;9.90;99.90;;;;;;5052686;28;20220;-85
2023/02/02 08:59:33;;;;;;;24.15;5.75;;;10.20;99.90;;;;;;5061496;28;20203;-85
2023/02/02 09:02:00;;;;;;;19.33;4.43;;;10.50;99.90;;;;;;5051338;28;20691;-86
2023/02/02 09:04:27;;;;;;;17.10;5.20;;;10.80;99.90;;;;;;5049329;28;20206;-85
2023/02/02 09:06:54;;;;;;;24.75;5.90;;;11.20;99.90;;;;;;5050996;28;20282;-86
2023/02/02 09:09:22;;;;;;;11.40;4.05;;;11.40;99.90;;;;;;5056066;28;20237;-85
2023/02/02 09:11:49;;;;;;;30.48;11.25;;;11.60;99.90;;;;;;5055013;28;20266;-86
2023/02/02 09:14:51;;;;;;;;;;;;;;;;;;;;;
2023/02/02 09:17:21;;;;;;;20.20;5.45;;;11.40;99.90;;;;;;5042851;22;20350;-77
2023/02/02 09:19:47;;;;;;;18.75;5.00;;;11.30;99.90;;;;;;5063398;28;20241;-76
2023/02/02 09:22:14;;;;;;;16.98;7.03;;;11.10;99.90;;;;;;5064527;28;20197;-76
2023/02/02 09:24:42;;;;;;;26.08;7.53;;;10.80;99.90;;;;;;5056636;28;20642;-74
2023/02/02 09:27:10;;;;;;;12.43;4.22;;;10.80;99.90;;;;;;5054519;28;20196;-77
2023/02/02 09:29:37;;;;;;;14.07;3.92;;;11.00;99.90;;;;;;5068495;28;20233;-79
2023/02/02 09:32:04;;;;;;;29.42;5.05;;;11.30;99.90;;;;;;5065139;28;20303;-76
2023/02/02 09:34:31;;;;;;;23.42;6.25;;;11.60;99.90;;;;;;5054263;28;20209;-74
2023/02/02 09:36:58;;;;;;;23.45;4.78;;;11.70;99.90;;;;;;5053517;28;20266;-73
2023/02/02 09:39:25;;;;;;;21.15;6.32;;;11.80;99.90;;;;;;5065164;28;20213;-74
2023/02/02 09:42:22;;;;;;;13.07;3.70;;;12.00;99.90;;;;;;5059087;28;20227;-75
2023/02/02 09:44:58;;;;;;;59.35;6.35;;;12.30;99.90;;;;;;5054772;28;20286;-77
2023/02/02 09:47:35;;;;;;;18.77;5.40;;;12.40;99.90;;;;;;5062228;28;20207;-77
2023/02/02 09:50:06;;;;;;;19.77;5.03;;;12.30;99.90;;;;;;5056185;28;20282;-76
2023/02/02 09:52:39;;;;;;;16.17;4.07;;;12.70;99.90;;;;;;5052846;28;20291;-77
2023/02/02 09:55:13;;;;;;;21.30;5.30;;;13.00;99.90;;;;;;5054222;28;20255;-77
2023/02/02 10:05:12;;;;;;;17.50;5.38;;;13.10;99.90;;;;;;4983390;28;20242;-86
2023/02/02 10:07:44;;;;;;;20.27;4.35;;;13.40;99.90;;;;;;4978898;28;20274;-85
2023/02/02 10:10:17;;;;;;;17.85;4.75;;;13.30;99.90;;;;;;5007841;28;20205;-85
2023/02/02 10:12:52;;;;;;;8.68;3.05;;;13.30;99.90;;;;;;4998105;28;20205;-86
2023/02/02 10:15:27;;;;;;;23.58;4.80;;;13.60;99.90;;;;;;5030934;28;20284;-85
2023/02/02 10:17:58;;;;;;;22.35;4.45;;;13.70;99.90;;;;;;5008617;28;20221;-86
2023/02/02 10:20:38;;;;;;;17.95;4.35;;;13.50;99.90;;;;;;5002984;28;20226;-85
2023/02/02 10:23:14;;;;;;;16.58;3.92;;;13.70;99.90;;;;;;5001045;28;20202;-87
2023/02/02 10:25:51;;;;;;;18.30;4.25;;;13.90;99.90;;;;;;5017338;28;20197;-84
2023/02/02 10:28:20;;;;;;;13.13;4.00;;;14.00;99.90;;;;;;5015181;28;20658;-87
2023/02/02 10:30:55;;;;;;;13.60;4.47;;;14.20;99.90;;;;;;5012887;28;20206;-86
2023/02/02 10:33:33;;;;;;;16.65;4.30;;;13.90;99.90;;;;;;5017413;28;20201;-86
2023/02/02 10:36:11;;;;;;;17.42;5.00;;;14.10;99.90;;;;;;5006407;28;20240;-86
2023/02/02 10:38:42;;;;;;;16.10;5.20;;;14.30;99.90;;;;;;5010870;28;20203;-86
2023/02/02 10:41:20;;;;;;;20.15;3.95;;;14.50;99.90;;;;;;5005829;28;20246;-85
2023/02/02 10:44:06;;;;;;;20.95;4.63;;;13.80;99.90;;;;;;5013182;28;20205;-84
2023/02/02 10:46:43;;;;;;;19.80;4.43;;;13.10;99.90;;;;;;5003410;28;20225;-86
2023/02/02 10:49:28;;;;;;;19.23;5.13;;;12.40;99.90;;;;;;5010706;28;20193;-86
2023/02/02 10:52:04;;;;;;;34.38;4.32;;;11.60;99.90;;;;;;5004812;28;20194;-86
2023/02/02 10:54:53;;;;;;;24.67;4.95;;;11.00;99.90;;;;;;5000618;28;20204;-85
2023/02/02 10:57:43;;;;;;;14.73;4.30;;;10.50;99.90;;;;;;5018495;28;20221;-85
2023/02/02 11:00:24;;;;;;;20.85;3.83;;;10.10;99.90;;;;;;5011158;28;20198;-86
2023/02/02 11:02:54;;;;;;;15.27;4.47;;;9.80;99.90;;;;;;5008397;28;20232;-86
2023/02/02 11:08:19;;;;;;;17.15;3.85;;;9.30;99.90;;;;;;5015548;28;20238;-86
2023/02/02 11:10:50;;;;;;;12.05;3.35;;;9.20;99.90;;;;;;5007233;28;20198;-87
2023/02/02 11:13:27;;;;;;;15.77;3.53;;;9.40;99.90;;;;;;5023988;28;20217;-86
2023/02/02 11:16:22;;;;;;;13.65;4.80;;;9.40;99.90;;;;;;5014139;28;20228;-85
2023/02/02 11:18:49;;;;;;;14.27;4.07;;;9.30;99.90;;;;;;5006112;28;20248;-86
2023/02/02 11:21:22;;;;;;;18.55;5.70;;;9.20;99.90;;;;;;5012545;28;20227;-86
2023/02/02 11:23:55;;;;;;;19.00;3.92;;;9.30;99.90;;;;;;5013491;28;20211;-86
2023/02/02 11:26:24;;;;;;;21.70;4.53;;;9.20;99.90;;;;;;5013852;28;20236;-86
2023/02/02 11:28:54;;;;;;;18.85;4.25;;;9.30;99.90;;;;;;5021321;28;20181;-85
2023/02/02 11:34:25;;;;;;;14.80;4.45;;;9.40;99.90;;;;;;4998238;28;20196;-85
2023/02/02 11:37:01;;;;;;;18.10;4.07;;;9.50;99.90;;;;;;5019061;28;20236;-86
2023/02/02 11:39:30;;;;;;;26.95;5.90;;;9.60;99.90;;;;;;5012769;28;20206;-86
2023/02/02 11:42:02;;;;;;;16.73;4.85;;;9.80;99.90;;;;;;5016420;28;20226;-85
2023/02/02 11:44:33;;;;;;;13.85;4.32;;;9.80;99.90;;;;;;5014338;28;20211;-87
2023/02/02 11:47:03;;;;;;;15.45;4.28;;;9.70;99.90;;;;;;5019615;28;20231;-87
2023/02/02 11:49:36;;;;;;;21.85;4.97;;;9.60;99.90;;;;;;5012248;28;20206;-84
2023/02/02 11:52:14;;;;;;;18.35;3.92;;;9.60;99.90;;;;;;5000664;28;20237;-88
2023/02/02 11:54:53;;;;;;;25.05;5.40;;;9.50;99.90;;;;;;5021710;28;20212;-86
2023/02/02 11:57:23;;;;;;;18.30;4.32;;;9.40;99.90;;;;;;5019843;28;20324;-85
2023/02/02 11:59:52;;;;;;;11.75;3.75;;;9.40;99.90;;;;;;5025056;28;20268;-85
2023/02/02 12:02:26;;;;;;;22.83;4.25;;;9.30;99.90;;;;;;5014090;28;20607;-86
2023/02/02 12:04:55;;;;;;;18.38;4.53;;;9.10;99.90;;;;;;5007791;28;20643;-86
2023/02/02 12:07:27;;;;;;;15.18;5.25;;;8.80;99.90;;;;;;5017090;28;20305;-85
2023/02/02 12:09:59;;;;;;;17.33;5.03;;;9.10;99.90;;;;;;5017611;28;20201;-86
2023/02/02 12:12:39;;;;;;;23.08;5.47;;;9.10;99.90;;;;;;5055058;28;20223;-86
2023/02/02 12:15:25;;;;;;;16.77;4.85;;;9.00;99.90;;;;;;5015257;28;20206;-85
2023/02/02 12:18:02;;;;;;;16.55;3.72;;;9.00;99.90;;;;;;5010930;28;20244;-86
2023/02/02 12:20:43;;;;;;;19.85;5.50;;;9.20;99.90;;;;;;5014872;28;20228;-85
2023/02/02 12:23:30;;;;;;;21.05;4.43;;;9.20;99.90;;;;;;5029941;28;20206;-86
2023/02/02 12:26:18;;;;;;;17.77;3.40;;;9.20;99.90;;;;;;5017649;28;20238;-85
2023/02/02 12:29:08;;;;;;;46.65;6.05;;;9.50;99.90;;;;;;5035562;28;20233;-86
2023/02/02 12:31:46;;;;;;;20.50;4.47;;;9.70;99.90;;;;;;5008952;28;20186;-85
2023/02/02 12:34:26;;;;;;;23.42;6.13;;;9.50;99.90;;;;;;5011491;28;20213;-86
2023/02/02 12:37:03;;;;;;;13.48;3.95;;;9.50;99.90;;;;;;5009492;28;20245;-85
2023/02/02 12:39:38;;;;;;;18.52;4.63;;;9.60;99.90;;;;;;5014916;28;20267;-85
2023/02/02 12:42:41;;;;;;;23.15;3.65;;;9.60;99.90;;;;;;5021276;28;20277;-86
2023/02/02 12:45:57;;;;;;;14.50;5.55;;;9.60;99.90;;;;;;5013211;28;20214;-86
2023/02/02 12:48:40;;;;;;;22.48;5.57;;;9.70;99.90;;;;;;5027487;28;20266;-86
2023/02/02 12:51:20;;;;;;;18.63;4.70;;;9.70;99.90;;;;;;5019934;28;20202;-85
2023/02/02 12:54:16;;;;;;;23.08;6.00;;;9.70;99.90;;;;;;5021321;28;20202;-87
2023/02/02 12:56:52;;;;;;;29.83;5.90;;;9.70;99.90;;;;;;5022752;28;20246;-85
2023/02/02 12:59:41;;;;;;;12.82;4.57;;;9.70;99.90;;;;;;5026524;28;20194;-86
2023/02/02 13:02:21;;;;;;;23.98;4.75;;;9.70;99.90;;;;;;5014155;28;20275;-86
2023/02/02 13:05:04;;;;;;;36.17;6.20;;;9.60;99.90;;;;;;5011380;28;20194;-86
2023/02/02 13:07:40;;;;;;;29.90;5.22;;;9.70;99.90;;;;;;5017000;28;20250;-87
2023/02/02 13:10:19;;;;;;;28.88;4.75;;;9.70;99.90;;;;;;5015356;28;20209;-86
2023/02/02 13:12:52;;;;;;;21.33;7.57;;;10.10;99.90;;;;;;5005889;28;20390;-85
2023/02/02 13:15:22;;;;;;;24.10;4.90;;;10.10;99.90;;;;;;5011730;28;20206;-87
2023/02/02 13:17:53;;;;;;;15.20;3.47;;;10.20;99.90;;;;;;5019607;28;20224;-86
2023/02/02 13:20:40;;;;;;;17.80;4.18;;;10.20;99.90;;;;;;5006840;28;20203;-85
2023/02/02 13:23:17;;;;;;;19.42;4.65;;;10.10;99.90;;;;;;5013652;28;20256;-85
2023/02/02 13:25:49;;;;;;;10.93;3.67;;;10.50;99.90;;;;;;5011353;28;20222;-86
2023/02/02 13:28:27;;;;;;;18.08;3.92;;;10.30;99.90;;;;;;5017888;28;20208;-85
2023/02/02 13:30:59;;;;;;;19.55;5.30;;;10.30;99.90;;;;;;5009134;28;20607;-85
2023/02/02 13:33:30;;;;;;;20.38;4.80;;;10.30;99.90;;;;;;5026249;28;20224;-85
2023/02/02 13:36:01;;;;;;;10.52;4.10;;;10.40;99.90;;;;;;5018200;28;20239;-85
2023/02/02 13:38:30;;;;;;;24.88;7.60;;;10.40;99.90;;;;;;5005286;28;20212;-85
2023/02/02 13:41:03;;;;;;;11.20;3.38;;;10.10;99.90;;;;;;5026565;28;20214;-84
2023/02/02 13:43:44;;;;;;;13.80;5.22;;;10.30;99.90;;;;;;5011427;28;20211;-86
2023/02/02 13:46:27;;;;;;;25.08;4.30;;;10.10;99.90;;;;;;5026870;28;20232;-84
2023/02/02 13:49:05;;;;;;;27.77;4.47;;;10.00;99.90;;;;;;5027091;28;20206;-85
2023/02/02 13:52:01;;;;;;;31.38;5.22;;;9.90;99.90;;;;;;5026104;28;20202;-85
2023/02/02 13:55:10;;;;;;;18.42;4.88;;;10.10;99.90;;;;;;5008687;28;20213;-85
2023/02/02 13:58:04;;;;;;;13.20;4.32;;;10.10;99.90;;;;;;5015475;28;20226;-84
2023/02/02 14:00:36;;;;;;;25.25;4.50;;;10.10;99.90;;;;;;5021020;28;20218;-84
2023/02/02 14:03:06;;;;;;;15.90;5.32;;;10.30;99.90;;;;;;5015473;28;20221;-84
2023/02/02 14:05:37;;;;;;;11.38;4.72;;;10.20;99.90;;;;;;5024462;28;20191;-84
2023/02/02 14:08:09;;;;;;;14.63;4.18;;;10.20;99.90;;;;;;5013546;28;20187;-84
2023/02/02 14:10:40;;;;;;;12.77;3.15;;;10.10;99.90;;;;;;5022861;28;20174;-86
2023/02/02 14:16:05;;;;;;;27.30;4.63;;;9.90;99.90;;;;;;5014918;28;20259;-84
2023/02/02 14:18:52;;;;;;;16.88;4.45;;;9.80;99.90;;;;;;5016396;28;20178;-84
2023/02/02 14:21:53;;;;;;;12.40;2.75;;;9.80;99.90;;;;;;5015559;28;20224;-84
2023/02/02 14:24:48;;;;;;;15.45;3.75;;;9.70;99.90;;;;;;5026100;28;20183;-84
2023/02/02 14:27:42;;;;;;;30.77;4.80;;;9.80;99.90;;;;;;5015640;28;20307;-84
2023/02/02 14:30:27;;;;;;;14.05;3.42;;;9.70;99.90;;;;;;5015769;28;20206;-85
2023/02/02 14:33:23;;;;;;;10.50;4.70;;;9.70;99.90;;;;;;5018964;28;20229;-85
2023/02/02 14:36:05;;;;;;;7.85;2.72;;;9.70;99.90;;;;;;5004159;28;20209;-85
2023/02/02 14:45:20;;;;;;;14.85;3.53;;;9.50;99.90;;;;;;5008803;28;20723;-85
2023/02/02 14:47:51;;;;;;;10.13;3.88;;;9.50;99.90;;;;;;5024547;28;20236;-84
2023/02/02 14:50:31;;;;;;;13.85;4.55;;;9.50;99.90;;;;;;5037345;28;20207;-84
2023/02/02 14:53:02;;;;;;;14.50;4.82;;;9.60;99.90;;;;;;5011683;28;20202;-87
2023/02/02 14:55:30;;;;;;;14.43;4.25;;;9.40;99.90;;;;;;5049715;28;20208;-84
2023/02/02 14:58:04;;;;;;;11.57;2.80;;;9.40;99.90;;;;;;5006242;28;20623;-86
2023/02/02 15:00:58;;;;;;;8.00;2.45;;;9.30;99.90;;;;;;5016480;28;20219;-84
2023/02/02 15:24:35;;;;;;;6.97;2.72;;;8.50;99.90;;;;;;5007093;22;20310;-76
2023/02/02 15:27:04;;;;;;;22.50;4.65;;;8.60;99.90;;;;;;4997576;28;20648;-73
2023/02/02 15:29:37;;;;;;;11.98;3.40;;;8.60;99.90;;;;;;5014586;28;20196;-76
2023/02/02 15:32:06;;;;;;;13.20;3.58;;;8.50;99.90;;;;;;5025657;28;20288;-75
2023/02/02 15:34:39;;;;;;;12.27;3.00;;;8.60;99.90;;;;;;5021290;28;20207;-78
2023/02/02 15:37:10;;;;;;;12.73;4.78;;;8.60;99.90;;;;;;5012415;28;20201;-74
2023/02/02 15:39:41;;;;;;;14.98;4.10;;;8.50;99.90;;;;;;5007244;28;20201;-75
2023/02/02 15:45:00;;;;;;;14.57;4.50;;;8.50;99.90;;;;;;4993843;28;20236;-75
2023/02/02 15:47:32;;;;;;;12.52;5.13;;;8.50;99.90;;;;;;5016385;28;20285;-75
2023/02/02 15:49:59;;;;;;;12.82;3.13;;;8.50;99.90;;;;;;5018718;28;20228;-76
2023/02/02 15:52:31;;;;;;;7.13;3.70;;;8.50;99.90;;;;;;5017929;28;20200;-77
2023/02/02 15:55:00;;;;;;;16.00;4.75;;;8.50;99.90;;;;;;5020005;28;20225;-73
2023/02/02 18:59:07;;;;;;;17.73;7.78;;;6.90;99.90;;;;;;4943963;29;20242;-86
2023/02/02 19:11:56;;;;;;;20.35;8.25;;;6.90;99.90;;;;;;4955379;28;20194;-86
2023/02/02 19:14:59;;;;;;;21.65;9.25;;;7.10;99.90;;;;;;4963129;28;20663;-89
2023/02/02 19:20:49;;;;;;;18.63;9.38;;;6.90;99.90;;;;;;4866590;29;20240;-86
2023/02/02 19:23:21;;;;;;;11.35;8.30;;;6.90;99.90;;;;;;4926389;22;20247;-75
2023/02/02 19:25:51;;;;;;;16.25;8.77;;;7.00;99.90;;;;;;5030130;28;20272;-79
2023/02/02 19:28:23;;;;;;;13.95;8.55;;;7.10;99.90;;;;;;5038770;28;20290;-77
2023/02/02 19:30:51;;;;;;;16.30;7.63;;;7.10;99.90;;;;;;5040884;28;20209;-78
2023/02/02 19:33:18;;;;;;;17.67;8.27;;;7.00;99.90;;;;;;5035849;28;20274;-78
2023/02/02 19:35:51;;;;;;;19.00;9.40;;;6.90;99.90;;;;;;5031380;28;20225;-75
2023/02/02 19:38:19;;;;;;;22.30;9.32;;;6.90;99.90;;;;;;5023825;28;20583;-76
2023/02/02 19:40:46;;;;;;;13.85;8.80;;;6.80;99.90;;;;;;5037644;28;20200;-78
2023/02/02 19:43:23;;;;;;;20.00;9.75;;;6.70;99.90;;;;;;5029245;28;20252;-80
2023/02/02 19:45:51;;;;;;;17.65;9.25;;;6.90;99.90;;;;;;5026378;28;20224;-79
2023/02/02 19:48:19;;;;;;;15.70;8.15;;;6.90;99.90;;;;;;5032283;28;20235;-77
2023/02/02 19:50:48;;;;;;;22.48;10.07;;;6.80;99.90;;;;;;5034453;28;20302;-78
2023/02/02 19:53:20;;;;;;;15.95;8.65;;;6.80;99.90;;;;;;5032801;28;20285;-80
2023/02/02 19:55:47;;;;;;;16.38;8.93;;;6.90;99.90;;;;;;5032479;28;20228;-78
2023/02/02 19:58:19;;;;;;;14.15;9.80;;;6.90;99.90;;;;;;5032127;28;20298;-77
2023/02/02 20:00:47;;;;;;;19.33;9.52;;;6.80;99.90;;;;;;5036627;28;20235;-78
2023/02/02 20:03:17;;;;;;;18.85;11.68;;;6.90;99.90;;;;;;5033629;28;20560;-76
2023/02/02 20:05:46;;;;;;;17.02;10.55;;;6.90;99.90;;;;;;5030994;28;20304;-77
2023/02/02 20:08:22;;;;;;;16.45;10.80;;;6.90;99.90;;;;;;5028276;28;20338;-77
2023/02/02 20:10:53;;;;;;;15.88;11.32;;;7.00;99.90;;;;;;5032792;28;20215;-77
2023/02/02 20:13:38;;;;;;;30.75;19.08;;;7.00;99.90;;;;;;5044429;28;20210;-79